Cold Spring Harbor, New York
Current Conditions -  °F | °C
As of 1:25 AM on Saturday 01 Nov 2014 (Local Time) from KFRG Reporting Station
Overcast Overcast  
Wind Chill: 44°   Ceiling: 3400
Heat Index: 49°   Visibility: 10mi
Dew Point: 44°   Wind: 13mph
Humidity: 83%   Direction: 40°NE
Pressure: 29.84"   Gusts: 20mph
Location:  40.87°N, 73.46°W
Report Text: KFRG 010525Z AUTO 04011G17KT 10SM OVC034 09/07 A2984 RMK AO2 T00940067
Loading
Personal Weather Stations






























Interactive Weather Map
Tropical Storm Tracking
New forecast layout! Learn more

10-Day Weather Forecast

Advertisements
Track Severe Weather on mobile